Etusivu
METAR-TAF:

METAR-TAF

Lentoasemat :

Calhoun County Airport

Port Lavaca, Texas, Yhdysvallat

Leveyspiiri: 28-39-14N, Pituuspiiri: 096-40-52W, korkeus merenpinnasta: 9 m

Tämänhetkinen sää

Tämä raportti tehtiin 12 minuuttia sitten, kello 20.35 UTC
Tuuli 13 kn etelästä
Lämpötila 24°C
Kosteus 65%
Ilmanpaine 1015 hPa
Näkyvyys: 16.1 km
Hajanaisia pilviä 3300 ft:n korkeudessa
Pilvistä 5000 ft:n korkeudessa

METAR: KPKV 232035Z AUTO 17013KT 10SM SCT033 OVC050 24/17 A2997 RMK AO2 T02430171

Aika: 14:47 (20:47 UTC)


TAF: puuttuu

Säähavainnot ja -ennusteet yli 4000 lentoasemalta (METAR- ja TAF-raportit).

Käytössä olevat sääasemat on merkitty karttaan keltaisilla ja punaisilla pisteillä.

Aseta hiiri pisteen päälle nähdäksesi sääaseman nimen.

Klikkaa sitten nähdäksesi säähavainnot ja -ennusteet.

Kartan vaihtaminen: klikkaa mustalla rastilla varustettuja vihreitä pisteitä, niin voit zoomata sisään; viivalla varustettua vihreää pistettä, niin voit zoomata ulos tai vihreitä nuolia, niin pääset viereisille kartoille.


METAR-TAF: